createdAt,value
2019-02-10T00:02:03.315Z,76.55
2019-02-10T00:04:33.993Z,74.75
2019-02-10T00:07:04.718Z,68.92
2019-02-10T00:09:35.398Z,63.83
2019-02-10T00:12:06.113Z,68.85
2019-02-10T00:14:36.806Z,64.77
2019-02-10T00:17:07.462Z,63.70
2019-02-10T00:19:38.325Z,59.38
2019-02-10T00:22:08.973Z,60.35
2019-02-10T00:24:39.708Z,70.05
2019-02-10T00:27:10.406Z,58.95
2019-02-10T00:29:41.102Z,69.32
2019-02-10T00:32:11.758Z,75.52
2019-02-10T00:34:42.434Z,71.85
2019-02-10T00:37:13.091Z,86.45
2019-02-10T00:39:43.835Z,81.22
2019-02-10T00:42:14.585Z,82.57
2019-02-10T00:44:45.279Z,81.15
2019-02-10T00:47:15.934Z,71.20
2019-02-10T00:49:46.622Z,63.52
2019-02-10T00:52:17.326Z,62.93
2019-02-10T00:54:49.525Z,59.90
2019-02-10T00:57:21.693Z,56.18
2019-02-10T00:59:52.374Z,62.90
2019-02-10T01:02:23.026Z,63.98
2019-02-10T01:04:56.195Z,56.58
2019-02-10T01:07:26.855Z,53.03
2019-02-10T01:09:57.541Z,53.23
2019-02-10T01:12:28.198Z,50.80
2019-02-10T01:14:58.955Z,48.63
2019-02-10T01:17:29.670Z,51.68
2019-02-10T01:20:01.345Z,59.38
2019-02-10T01:22:32.007Z,59.38
2019-02-10T01:25:02.848Z,62.67
2019-02-10T01:27:33.511Z,69.05
2019-02-10T01:30:12.129Z,67.08
2019-02-10T01:32:42.853Z,59.27
2019-02-10T01:35:15.254Z,55.50
2019-02-10T01:37:45.915Z,53.87
2019-02-10T01:40:16.607Z,56.35
2019-02-10T01:42:47.258Z,58.68
2019-02-10T01:45:17.949Z,53.30
2019-02-10T01:47:48.604Z,55.73
2019-02-10T01:50:19.295Z,54.77
2019-02-10T01:52:49.942Z,60.20
2019-02-10T01:55:20.621Z,55.23
2019-02-10T01:57:51.339Z,56.42
2019-02-10T02:00:22.034Z,55.92
2019-02-10T02:02:52.685Z,56.02
2019-02-10T02:05:23.383Z,55.40
2019-02-10T02:07:54.106Z,58.05
2019-02-10T02:10:24.866Z,61.42
2019-02-10T02:12:55.527Z,57.80
2019-02-10T02:15:26.286Z,63.08
2019-02-10T02:17:56.946Z,64.30
2019-02-10T02:20:28.697Z,71.50
2019-02-10T02:22:59.364Z,67.50
2019-02-10T02:25:30.058Z,94.22
2019-02-10T02:28:00.799Z,85.92
2019-02-10T02:30:31.498Z,78.95
2019-02-10T02:33:02.164Z,73.47
2019-02-10T02:35:32.854Z,75.45
2019-02-10T02:38:03.531Z,71.15
2019-02-10T02:40:35.823Z,85.97
2019-02-10T02:43:06.491Z,98.72
2019-02-10T02:45:37.254Z,89.95
2019-02-10T02:48:07.965Z,87.08
2019-02-10T02:50:38.671Z,86.90
2019-02-10T02:53:09.336Z,91.17
2019-02-10T02:55:40.113Z,99.13
2019-02-10T02:58:10.781Z,92.02
2019-02-10T03:00:41.541Z,97.33
2019-02-10T03:03:12.200Z,96.32
2019-02-10T03:05:42.890Z,90.92
2019-02-10T03:08:13.691Z,93.22
2019-02-10T03:10:44.471Z,90.70
2019-02-10T03:13:15.204Z,100.50
2019-02-10T03:15:45.903Z,99.60
2019-02-10T03:18:16.562Z,90.63
2019-02-10T03:20:49.130Z,84.47
2019-02-10T03:23:19.823Z,84.17
2019-02-10T03:25:50.592Z,78.28
2019-02-10T03:28:21.326Z,79.40
2019-02-10T03:30:52.101Z,84.17
2019-02-10T03:33:22.875Z,88.93
2019-02-10T03:35:53.634Z,82.00
2019-02-10T03:38:24.299Z,84.92
2019-02-10T03:40:54.989Z,86.87
2019-02-10T03:43:25.645Z,86.00
2019-02-10T03:45:56.438Z,83.58
2019-02-10T03:48:27.098Z,68.35
2019-02-10T03:50:57.786Z,79.33
2019-02-10T03:53:28.616Z,78.67
2019-02-10T03:55:59.375Z,75.35
2019-02-10T03:58:30.042Z,66.93
2019-02-10T04:01:00.902Z,82.47
2019-02-10T04:03:31.645Z,357.98
2019-02-10T04:06:03.859Z,290.95
2019-02-10T04:08:36.110Z,233.07
2019-02-10T04:11:06.900Z,94.47
2019-02-10T04:13:37.562Z,71.65
2019-02-10T04:16:08.247Z,96.25
2019-02-10T04:18:38.920Z,120.77
2019-02-10T04:21:10.441Z,131.75
2019-02-10T04:23:41.117Z,209.43
2019-02-10T04:26:11.817Z,173.47
2019-02-10T04:28:42.487Z,94.92
2019-02-10T04:31:13.171Z,75.60
2019-02-10T04:33:43.826Z,92.35
2019-02-10T04:36:14.526Z,103.83
2019-02-10T04:38:45.290Z,99.80
2019-02-10T04:41:16.036Z,141.23
2019-02-10T04:43:46.769Z,86.70
2019-02-10T04:46:17.472Z,80.23
2019-02-10T04:48:48.218Z,103.17
2019-02-10T04:51:18.983Z,97.10
2019-02-10T04:53:50.719Z,110.53
2019-02-10T04:56:21.414Z,83.62
2019-02-10T04:58:52.151Z,67.07
2019-02-10T05:01:22.838Z,64.50
2019-02-10T05:03:53.501Z,76.15
2019-02-10T05:06:24.218Z,62.23
2019-02-10T05:08:54.957Z,68.47
2019-02-10T05:11:25.655Z,97.87
2019-02-10T05:13:56.383Z,81.08
2019-02-10T05:16:27.077Z,70.80
2019-02-10T05:18:57.883Z,83.78
2019-02-10T05:21:29.510Z,78.63
2019-02-10T05:24:03.555Z,74.65
2019-02-10T05:26:32.576Z,77.65
2019-02-10T05:29:03.244Z,69.40
2019-02-10T05:31:34.196Z,86.60
2019-02-10T05:34:04.859Z,145.67
2019-02-10T05:36:35.550Z,75.25
2019-02-10T05:39:06.238Z,75.23
2019-02-10T05:41:37.055Z,72.40
2019-02-10T05:44:08.962Z,67.78
2019-02-10T05:46:39.651Z,69.03
2019-02-10T05:49:10.323Z,59.23
2019-02-10T05:51:41.085Z,58.83
2019-02-10T05:54:11.753Z,64.50
2019-02-10T05:56:42.523Z,67.97
2019-02-10T05:59:13.186Z,62.90
2019-02-10T06:02:03.878Z,76.57
2019-02-10T06:04:37.741Z,68.45
2019-02-10T06:07:11.839Z,68.87
2019-02-10T06:09:44.147Z,84.47
2019-02-10T06:12:14.838Z,75.90
2019-02-10T06:14:45.503Z,80.00
2019-02-10T06:17:16.279Z,75.03
2019-02-10T06:19:50.732Z,84.32
2019-02-10T06:22:22.194Z,88.20
2019-02-10T06:24:52.893Z,72.77
2019-02-10T06:27:23.614Z,96.47
2019-02-10T06:29:54.274Z,83.47
2019-02-10T06:32:25.003Z,70.08
2019-02-10T06:34:56.807Z,86.40
2019-02-10T06:37:27.569Z,76.10
2019-02-10T06:39:58.234Z,56.90
2019-02-10T06:42:28.921Z,74.82
2019-02-10T06:44:59.651Z,56.00
2019-02-10T06:47:30.337Z,55.30
2019-02-10T06:50:01.002Z,61.40
2019-02-10T06:52:31.692Z,65.55
2019-02-10T06:55:02.361Z,90.87
2019-02-10T06:57:33.127Z,86.22
2019-02-10T07:00:06.062Z,67.92
2019-02-10T07:02:57.938Z,111.97
2019-02-10T07:05:28.610Z,75.83
2019-02-10T07:07:59.332Z,71.45
2019-02-10T07:10:31.574Z,67.58
2019-02-10T07:13:02.439Z,65.65
2019-02-10T07:15:57.514Z,64.12
2019-02-10T07:19:00.429Z,242.43
2019-02-10T07:21:33.335Z,125.92
2019-02-10T07:24:23.943Z,56.68
2019-02-10T07:26:57.106Z,162.35
2019-02-10T07:29:56.912Z,119.60
2019-02-10T07:32:30.215Z,95.00
2019-02-10T07:35:22.235Z,86.37
2019-02-10T07:37:56.226Z,65.83
2019-02-10T07:40:33.109Z,59.75
2019-02-10T07:43:09.532Z,80.35
2019-02-10T07:45:49.461Z,62.55
2019-02-10T07:48:32.358Z,52.30
2019-02-10T07:51:15.215Z,45.15
2019-02-10T07:54:00.918Z,34.40
2019-02-10T07:56:47.085Z,38.90
2019-02-10T07:59:42.307Z,48.25
2019-02-10T08:02:18.893Z,40.20
2019-02-10T08:05:12.186Z,31.80
2019-02-10T08:07:57.855Z,42.23
2019-02-10T08:10:34.473Z,38.13
2019-02-10T08:13:11.189Z,41.25
2019-02-10T08:15:51.036Z,47.10
2019-02-10T08:18:43.442Z,47.65
2019-02-10T08:21:23.157Z,42.17
2019-02-10T08:23:59.873Z,41.08
2019-02-10T08:26:42.189Z,41.05
2019-02-10T08:29:24.920Z,40.50
2019-02-10T08:32:33.682Z,49.88
2019-02-10T08:35:28.459Z,48.38
2019-02-10T08:38:11.439Z,46.70
2019-02-10T08:41:04.029Z,41.35
2019-02-10T08:44:02.118Z,43.85
2019-02-10T08:46:38.763Z,58.63
2019-02-10T08:49:12.686Z,59.48
2019-02-10T08:51:55.943Z,63.85
2019-02-10T08:54:27.206Z,50.12
2019-02-10T08:56:57.953Z,58.60
2019-02-10T08:59:32.929Z,61.63
2019-02-10T09:02:05.202Z,59.88
2019-02-10T09:04:35.851Z,50.23
2019-02-10T09:07:07.386Z,44.35
2019-02-10T09:09:38.029Z,40.85
2019-02-10T09:12:08.710Z,35.25
2019-02-10T09:14:39.349Z,34.65
2019-02-10T09:17:10.079Z,31.82
2019-02-10T09:19:40.797Z,25.90
2019-02-10T09:22:11.471Z,31.75
2019-02-10T09:24:42.112Z,31.17
2019-02-10T09:27:13.635Z,28.65
2019-02-10T09:29:44.283Z,31.82
2019-02-10T09:32:14.982Z,29.77
2019-02-10T09:34:45.626Z,35.08
2019-02-10T09:37:16.298Z,32.75
2019-02-10T09:39:47.011Z,29.90
2019-02-10T09:42:17.769Z,29.95
2019-02-10T09:44:49.932Z,37.48
2019-02-10T09:47:22.182Z,22.95
2019-02-10T09:49:52.826Z,19.00
2019-02-10T09:52:23.508Z,22.75
2019-02-10T09:54:54.146Z,24.18
2019-02-10T09:57:24.824Z,20.85
2019-02-10T09:59:56.543Z,22.90
2019-02-10T10:02:27.225Z,22.13
2019-02-10T10:04:57.857Z,21.48
2019-02-10T10:07:28.610Z,20.68
2019-02-10T10:10:00.766Z,19.95
2019-02-10T10:12:32.522Z,21.75
2019-02-10T10:15:03.811Z,20.52
2019-02-10T10:17:34.487Z,20.68
2019-02-10T10:20:08.705Z,22.40
2019-02-10T10:22:39.486Z,21.27
2019-02-10T10:25:10.206Z,21.33
2019-02-10T10:27:41.813Z,21.52
2019-02-10T10:30:15.302Z,21.65
2019-02-10T10:32:45.981Z,17.57
2019-02-10T10:35:16.634Z,20.97
2019-02-10T10:37:47.450Z,18.98
2019-02-10T10:40:18.102Z,21.02
2019-02-10T10:42:48.772Z,22.15
2019-02-10T10:45:20.934Z,20.20
2019-02-10T10:47:53.204Z,21.70
2019-02-10T10:50:23.918Z,20.75
2019-02-10T10:52:54.624Z,25.43
2019-02-10T10:55:25.263Z,23.27
2019-02-10T10:57:57.234Z,25.17
2019-02-10T11:00:28.009Z,20.17
2019-02-10T11:03:00.339Z,19.30
2019-02-10T11:05:30.981Z,21.10
2019-02-10T11:08:01.742Z,24.27
2019-02-10T11:10:32.385Z,19.77
2019-02-10T11:13:03.061Z,18.42
2019-02-10T11:15:33.777Z,18.87
2019-02-10T11:18:04.447Z,25.17
2019-02-10T11:20:35.096Z,32.90
2019-02-10T11:23:07.151Z,25.02
2019-02-10T11:25:39.119Z,27.13
2019-02-10T11:28:10.192Z,25.82
2019-02-10T11:30:40.903Z,22.60
2019-02-10T11:33:11.577Z,23.85
2019-02-10T11:35:42.330Z,23.27
2019-02-10T11:38:13.010Z,21.45
2019-02-10T11:40:43.658Z,26.20
2019-02-10T11:43:14.395Z,24.65
2019-02-10T11:45:45.060Z,22.77
2019-02-10T11:48:15.809Z,19.80
2019-02-10T11:50:46.528Z,24.05
2019-02-10T11:53:18.718Z,25.00
2019-02-10T11:55:50.883Z,20.52
2019-02-10T11:58:23.071Z,23.67
2019-02-10T12:00:53.743Z,23.27
2019-02-10T12:03:24.422Z,25.97
2019-02-10T12:05:55.068Z,22.87
2019-02-10T12:08:34.179Z,29.50
2019-02-10T12:10:58.093Z,31.25
2019-02-10T12:13:28.768Z,28.55
2019-02-10T12:15:59.534Z,27.58
2019-02-10T12:18:30.206Z,29.82
2019-02-10T12:21:00.917Z,22.35
2019-02-10T12:23:31.594Z,27.75
2019-02-10T12:26:02.301Z,25.88
2019-02-10T12:28:32.950Z,26.62
2019-02-10T12:31:03.598Z,21.55
2019-02-10T12:33:34.271Z,26.50
2019-02-10T12:36:04.978Z,29.25
2019-02-10T12:38:35.651Z,23.07
2019-02-10T12:41:06.304Z,30.32
2019-02-10T12:43:37.043Z,32.30
2019-02-10T12:46:07.686Z,27.22
2019-02-10T12:48:38.367Z,28.30
2019-02-10T12:51:09.015Z,27.90
2019-02-10T12:53:39.688Z,32.88
2019-02-10T12:56:10.335Z,30.48
2019-02-10T12:58:41.010Z,29.95
2019-02-10T13:01:11.653Z,29.02
2019-02-10T13:03:42.346Z,26.95
2019-02-10T13:06:13.068Z,24.43
2019-02-10T13:08:43.881Z,24.95
2019-02-10T13:11:15.494Z,30.05
2019-02-10T13:13:46.211Z,25.75
2019-02-10T13:16:16.858Z,33.70
2019-02-10T13:18:47.554Z,22.90
2019-02-10T13:21:18.264Z,59.33
2019-02-10T13:23:48.967Z,33.95
2019-02-10T13:26:19.731Z,69.75
2019-02-10T13:28:51.358Z,36.68
2019-02-10T13:31:24.031Z,43.52
2019-02-10T13:33:54.697Z,97.17
2019-02-10T13:36:25.350Z,51.08
2019-02-10T13:38:56.033Z,53.55
2019-02-10T13:41:36.758Z,38.00
2019-02-10T13:44:07.581Z,58.17
2019-02-10T13:46:38.226Z,48.63
2019-02-10T13:49:08.899Z,34.33
2019-02-10T13:51:41.243Z,25.60
2019-02-10T13:54:11.933Z,37.55
2019-02-10T13:56:42.578Z,37.73
2019-02-10T13:59:13.323Z,36.25
2019-02-10T14:01:44.057Z,34.53
2019-02-10T14:04:14.729Z,32.55
2019-02-10T14:06:45.447Z,37.08
2019-02-10T14:09:16.199Z,37.88
2019-02-10T14:11:46.983Z,41.83
2019-02-10T14:14:17.695Z,42.40
2019-02-10T14:16:48.347Z,83.10
2019-02-10T14:19:19.052Z,75.00
2019-02-10T14:21:49.699Z,54.80
2019-02-10T14:24:20.389Z,59.63
2019-02-10T14:26:51.045Z,83.70
2019-02-10T14:29:22.639Z,62.00
2019-02-10T14:31:53.303Z,81.63
2019-02-10T14:34:26.843Z,85.95
2019-02-10T14:36:57.507Z,114.45
2019-02-10T14:39:28.262Z,151.37
2019-02-10T14:41:58.921Z,88.60
2019-02-10T14:44:30.968Z,78.33
2019-02-10T14:47:01.683Z,66.67
2019-02-10T14:49:33.888Z,53.85
2019-02-10T14:52:06.059Z,75.28
2019-02-10T14:54:36.748Z,153.00
2019-02-10T14:57:07.399Z,56.42
2019-02-10T14:59:38.081Z,61.45
2019-02-10T15:02:08.739Z,59.77
2019-02-10T15:04:39.418Z,39.58
2019-02-10T15:07:10.074Z,54.10
2019-02-10T15:09:40.893Z,39.58
2019-02-10T15:12:11.537Z,50.92
2019-02-10T15:14:42.281Z,64.58
2019-02-10T15:17:12.942Z,45.95
2019-02-10T15:19:43.620Z,57.13
2019-02-10T15:22:14.349Z,46.92
2019-02-10T15:24:45.022Z,81.87
2019-02-10T15:27:15.750Z,93.87
2019-02-10T15:29:47.475Z,52.17
2019-02-10T15:32:19.581Z,59.60
2019-02-10T15:34:50.238Z,37.50
2019-02-10T15:37:20.887Z,37.28
2019-02-10T15:39:51.555Z,46.63
2019-02-10T15:42:22.280Z,43.87
2019-02-10T15:44:52.917Z,42.88
2019-02-10T15:47:23.570Z,58.48
2019-02-10T15:49:54.287Z,47.35
2019-02-10T15:52:24.976Z,43.68
2019-02-10T15:54:55.621Z,44.75
2019-02-10T15:57:26.280Z,37.05
2019-02-10T15:59:56.988Z,43.90
2019-02-10T16:02:29.271Z,40.90
2019-02-10T16:05:01.570Z,39.38
2019-02-10T16:07:32.353Z,54.38
2019-02-10T16:10:06.273Z,60.30
2019-02-10T16:12:36.917Z,45.28
2019-02-10T16:15:10.108Z,52.58
2019-02-10T16:17:40.761Z,37.05
2019-02-10T16:20:13.350Z,63.68
2019-02-10T16:22:44.087Z,134.30
2019-02-10T16:25:14.745Z,150.85
2019-02-10T16:27:45.403Z,91.30
2019-02-10T16:30:19.473Z,137.07
2019-02-10T16:32:50.433Z,178.87
2019-02-10T16:35:21.314Z,59.38
2019-02-10T16:37:51.971Z,298.57
2019-02-10T16:40:23.098Z,293.30
2019-02-10T16:42:53.761Z,166.47
2019-02-10T16:45:24.498Z,234.35
2019-02-10T16:47:55.165Z,229.32
2019-02-10T16:50:25.822Z,117.62
2019-02-10T16:52:56.550Z,53.15
2019-02-10T16:55:27.209Z,165.90
2019-02-10T16:57:57.876Z,123.50
2019-02-10T17:00:30.902Z,94.87
2019-02-10T17:03:01.566Z,98.75
2019-02-10T17:05:32.222Z,53.45
2019-02-10T17:08:02.882Z,100.55
2019-02-10T17:10:33.585Z,149.90
2019-02-10T17:13:04.654Z,241.78
2019-02-10T17:15:36.878Z,155.22
2019-02-10T17:18:07.541Z,51.08
2019-02-10T17:20:38.195Z,62.40
2019-02-10T17:23:09.903Z,88.55
2019-02-10T17:25:40.630Z,43.70
2019-02-10T17:28:12.818Z,97.75
2019-02-10T17:30:43.506Z,333.23
2019-02-10T17:33:14.242Z,51.02
2019-02-10T17:35:46.177Z,64.32
2019-02-10T17:38:16.858Z,38.92
2019-02-10T17:40:56.599Z,78.47
2019-02-10T17:43:28.581Z,54.30
2019-02-10T17:45:59.302Z,49.93
2019-02-10T17:48:29.961Z,39.63
2019-02-10T17:51:04.916Z,46.15
2019-02-10T17:53:35.585Z,45.23
2019-02-10T17:56:07.110Z,46.35
2019-02-10T17:58:37.873Z,56.42
2019-02-10T18:01:08.547Z,71.40
2019-02-10T18:03:40.809Z,46.58
2019-02-10T18:06:13.259Z,44.27
2019-02-10T18:08:44.001Z,44.70
2019-02-10T18:11:14.656Z,43.00
2019-02-10T18:13:45.481Z,44.10
2019-02-10T18:16:17.770Z,47.78
2019-02-10T18:18:59.132Z,84.55
2019-02-10T18:21:34.161Z,54.83
2019-02-10T18:24:22.524Z,74.62
2019-02-10T18:26:54.917Z,132.43
2019-02-10T18:29:36.626Z,103.95
2019-02-10T18:32:10.611Z,59.08
2019-02-10T18:34:59.162Z,79.97
2019-02-10T18:37:34.222Z,72.58
2019-02-10T18:40:09.974Z,109.27
2019-02-10T18:42:48.210Z,51.58
2019-02-10T18:45:29.261Z,50.88
2019-02-10T18:48:01.554Z,92.37
2019-02-10T18:50:47.435Z,60.38
2019-02-10T18:53:19.713Z,63.40
2019-02-10T18:55:57.754Z,78.78
2019-02-10T18:58:33.218Z,63.92
2019-02-10T19:01:23.703Z,75.57
2019-02-10T19:03:58.524Z,82.90
2019-02-10T19:06:30.926Z,69.92
2019-02-10T19:09:12.334Z,80.95
2019-02-10T19:11:59.877Z,88.97
2019-02-10T19:14:32.215Z,76.17
2019-02-10T19:17:10.271Z,79.77
2019-02-10T19:19:57.533Z,74.10
2019-02-10T19:22:41.882Z,82.17
2019-02-10T19:25:16.999Z,87.45
2019-02-10T19:27:49.315Z,84.52
2019-02-10T19:30:21.707Z,76.92
2019-02-10T19:33:06.948Z,70.47
2019-02-10T19:35:45.107Z,140.35
2019-02-10T19:38:23.224Z,113.37
2019-02-10T19:40:55.602Z,116.15
2019-02-10T19:43:27.915Z,102.40
2019-02-10T19:46:14.834Z,58.63
2019-02-10T19:48:57.781Z,55.17
2019-02-10T19:51:30.151Z,61.42
2019-02-10T19:54:20.364Z,53.85
2019-02-10T19:57:10.177Z,44.05
2019-02-10T20:00:03.026Z,55.17
2019-02-10T20:03:02.642Z,49.63
2019-02-10T20:06:02.014Z,59.03
2019-02-10T20:09:02.698Z,56.53
2019-02-10T20:12:04.168Z,48.28
2019-02-10T20:14:39.621Z,56.35
2019-02-10T20:17:24.005Z,69.27
2019-02-10T20:20:12.845Z,63.63
2019-02-10T20:22:51.114Z,55.12
2019-02-10T20:25:23.431Z,54.77
2019-02-10T20:28:03.356Z,58.45
2019-02-10T20:30:41.484Z,66.85
2019-02-10T20:33:32.223Z,49.40
2019-02-10T20:36:04.614Z,56.65
2019-02-10T20:38:43.179Z,45.70
2019-02-10T20:41:15.522Z,51.37
2019-02-10T20:43:50.842Z,47.73
2019-02-10T20:46:23.227Z,49.93
2019-02-10T20:49:04.323Z,55.78
2019-02-10T20:51:36.712Z,53.20
2019-02-10T20:54:21.139Z,52.03
2019-02-10T20:56:56.563Z,45.58
2019-02-10T20:59:34.868Z,45.28
2019-02-10T21:02:07.241Z,42.85
2019-02-10T21:04:56.315Z,52.58
2019-02-10T21:07:45.125Z,40.48
2019-02-10T21:10:31.050Z,43.48
2019-02-10T21:13:19.656Z,47.55
2019-02-10T21:16:07.074Z,37.30
2019-02-10T21:18:45.198Z,40.92
2019-02-10T21:21:23.329Z,46.65
2019-02-10T21:24:13.731Z,45.55
2019-02-10T21:26:52.022Z,45.67
2019-02-10T21:29:36.330Z,39.38
2019-02-10T21:32:08.628Z,45.85
2019-02-10T21:34:59.180Z,48.63
2019-02-10T21:37:49.914Z,41.50
2019-02-10T21:40:22.201Z,33.60
2019-02-10T21:42:54.569Z,47.90
2019-02-10T21:45:28.374Z,45.70
2019-02-10T21:48:00.672Z,44.13
2019-02-10T21:50:31.482Z,48.38
2019-02-10T21:53:02.146Z,52.48
2019-02-10T21:55:34.379Z,37.42
2019-02-10T21:58:05.026Z,47.65
2019-02-10T22:00:35.644Z,45.90
2019-02-10T22:03:06.309Z,46.42
2019-02-10T22:05:36.907Z,52.10
2019-02-10T22:08:07.510Z,46.50
2019-02-10T22:10:38.249Z,44.50
2019-02-10T22:13:08.899Z,49.10
2019-02-10T22:15:39.549Z,48.42
2019-02-10T22:18:10.205Z,51.80
2019-02-10T22:20:40.850Z,38.35
2019-02-10T22:23:11.559Z,46.95
2019-02-10T22:25:42.230Z,46.45
2019-02-10T22:28:12.874Z,44.38
2019-02-10T22:30:43.522Z,44.42
2019-02-10T22:33:16.775Z,45.50
2019-02-10T22:35:48.332Z,49.60
2019-02-10T22:38:19.186Z,46.68
2019-02-10T22:40:49.827Z,50.58
2019-02-10T22:43:20.558Z,44.40
2019-02-10T22:45:51.203Z,44.48
2019-02-10T22:48:21.853Z,46.13
2019-02-10T22:50:52.501Z,41.90
2019-02-10T22:53:23.151Z,44.10
2019-02-10T22:55:54.870Z,45.20
2019-02-10T22:58:25.585Z,39.95
2019-02-10T23:00:59.172Z,41.25
2019-02-10T23:03:30.195Z,39.42
2019-02-10T23:06:02.363Z,42.40
2019-02-10T23:08:33.143Z,41.10
2019-02-10T23:11:03.785Z,44.98
2019-02-10T23:13:34.502Z,39.25
2019-02-10T23:16:05.151Z,42.08
2019-02-10T23:18:35.806Z,45.40
2019-02-10T23:21:06.447Z,43.33
2019-02-10T23:23:37.121Z,41.33
2019-02-10T23:26:07.775Z,40.45
2019-02-10T23:28:38.558Z,40.45
2019-02-10T23:31:09.275Z,36.90
2019-02-10T23:33:39.954Z,36.85
2019-02-10T23:36:11.126Z,29.85
2019-02-10T23:38:41.799Z,37.40
2019-02-10T23:41:12.448Z,37.70
2019-02-10T23:43:43.126Z,36.30
2019-02-10T23:46:13.769Z,35.00
2019-02-10T23:48:44.453Z,31.27
2019-02-10T23:51:15.095Z,31.97
2019-02-10T23:53:45.774Z,37.67
2019-02-10T23:56:16.416Z,36.15
2019-02-10T23:58:47.179Z,40.50
